The Cedars, Virginia
Current Conditions -  °F | °C
As of 7:55 PM on Wednesday 17 Dec 2014 (Local Time) from KMKJ Reporting Station
Broken Clouds Broken Clouds  
Wind Chill: 31°   Ceiling: 2300
Heat Index: 38°   Visibility: 10mi
Dew Point: 31°   Wind: 12mph
Humidity: 76%   Direction: 270°W
Pressure: 30.13"   Gusts: 17mph
Location:  36.8339°N, 81.5195°W
Report Text: KMKJ 180055Z AUTO 27010G15KT 10SM BKN023 03/00 A3013 RMK AO2 T00341005
Loading
Personal Weather Stations






























Interactive Weather Map New forecast layout! Learn more

10-Day Weather Forecast

Advertisements
Track Severe Weather on mobile